sensor_id;sensor_type;location;lat;lon;timestamp;P1;durP1;ratioP1;P2;durP2;ratioP2
16979;SDS011;42288;52.182;21.156;2023-12-20T00:02:19;26.83;;;13.93;;
16979;SDS011;42288;52.182;21.156;2023-12-20T00:04:45;34.20;;;17.70;;
16979;SDS011;42288;52.182;21.156;2023-12-20T00:07:10;28.17;;;14.47;;
16979;SDS011;42288;52.182;21.156;2023-12-20T00:09:36;25.57;;;13.07;;
16979;SDS011;42288;52.182;21.156;2023-12-20T00:12:02;28.27;;;14.60;;
16979;SDS011;42288;52.182;21.156;2023-12-20T00:14:27;28.73;;;16.47;;
16979;SDS011;42288;52.182;21.156;2023-12-20T00:16:53;34.50;;;18.00;;
16979;SDS011;42288;52.182;21.156;2023-12-20T00:19:19;35.80;;;19.00;;
16979;SDS011;42288;52.182;21.156;2023-12-20T00:21:45;35.43;;;18.70;;
16979;SDS011;42288;52.182;21.156;2023-12-20T00:24:10;39.20;;;20.17;;
16979;SDS011;42288;52.182;21.156;2023-12-20T00:26:36;34.50;;;17.30;;
16979;SDS011;42288;52.182;21.156;2023-12-20T00:29:02;40.23;;;20.70;;
16979;SDS011;42288;52.182;21.156;2023-12-20T00:31:27;37.50;;;18.87;;
16979;SDS011;42288;52.182;21.156;2023-12-20T00:33:53;40.50;;;20.87;;
16979;SDS011;42288;52.182;21.156;2023-12-20T00:36:19;38.17;;;18.53;;
16979;SDS011;42288;52.182;21.156;2023-12-20T00:38:45;34.50;;;16.20;;
16979;SDS011;42288;52.182;21.156;2023-12-20T00:41:10;33.20;;;16.40;;
16979;SDS011;42288;52.182;21.156;2023-12-20T00:43:36;36.93;;;17.60;;
16979;SDS011;42288;52.182;21.156;2023-12-20T00:46:01;38.93;;;18.97;;
16979;SDS011;42288;52.182;21.156;2023-12-20T00:48:27;38.27;;;18.80;;
16979;SDS011;42288;52.182;21.156;2023-12-20T00:50:55;31.63;;;14.87;;
16979;SDS011;42288;52.182;21.156;2023-12-20T00:53:20;23.70;;;11.87;;
16979;SDS011;42288;52.182;21.156;2023-12-20T00:55:46;25.53;;;14.33;;
16979;SDS011;42288;52.182;21.156;2023-12-20T00:58:12;26.87;;;12.63;;
16979;SDS011;42288;52.182;21.156;2023-12-20T01:00:37;20.53;;;11.30;;
16979;SDS011;42288;52.182;21.156;2023-12-20T01:03:04;25.13;;;14.13;;
16979;SDS011;42288;52.182;21.156;2023-12-20T01:05:30;33.93;;;17.43;;
16979;SDS011;42288;52.182;21.156;2023-12-20T01:07:56;27.43;;;14.27;;
16979;SDS011;42288;52.182;21.156;2023-12-20T01:10:21;31.37;;;16.90;;
16979;SDS011;42288;52.182;21.156;2023-12-20T01:12:47;27.17;;;15.10;;
16979;SDS011;42288;52.182;21.156;2023-12-20T01:15:13;29.53;;;15.00;;
16979;SDS011;42288;52.182;21.156;2023-12-20T01:17:39;30.13;;;15.60;;
16979;SDS011;42288;52.182;21.156;2023-12-20T01:20:04;25.27;;;14.10;;
16979;SDS011;42288;52.182;21.156;2023-12-20T01:22:31;31.93;;;17.73;;
16979;SDS011;42288;52.182;21.156;2023-12-20T01:24:56;29.03;;;16.03;;
16979;SDS011;42288;52.182;21.156;2023-12-20T01:27:22;35.07;;;17.57;;
16979;SDS011;42288;52.182;21.156;2023-12-20T01:29:48;37.83;;;18.33;;
16979;SDS011;42288;52.182;21.156;2023-12-20T01:32:13;39.90;;;17.97;;
16979;SDS011;42288;52.182;21.156;2023-12-20T01:34:39;30.53;;;13.83;;
16979;SDS011;42288;52.182;21.156;2023-12-20T01:37:06;31.30;;;15.63;;
16979;SDS011;42288;52.182;21.156;2023-12-20T01:39:31;27.23;;;15.63;;
16979;SDS011;42288;52.182;21.156;2023-12-20T01:41:57;39.27;;;19.10;;
16979;SDS011;42288;52.182;21.156;2023-12-20T01:44:22;22.73;;;13.20;;
16979;SDS011;42288;52.182;21.156;2023-12-20T01:46:48;37.53;;;20.20;;
16979;SDS011;42288;52.182;21.156;2023-12-20T01:49:14;32.83;;;14.73;;
16979;SDS011;42288;52.182;21.156;2023-12-20T01:51:40;52.17;;;19.50;;
16979;SDS011;42288;52.182;21.156;2023-12-20T01:54:06;45.97;;;21.80;;
16979;SDS011;42288;52.182;21.156;2023-12-20T01:56:32;48.27;;;20.30;;
16979;SDS011;42288;52.182;21.156;2023-12-20T01:58:57;49.07;;;18.53;;
16979;SDS011;42288;52.182;21.156;2023-12-20T02:01:24;44.23;;;20.30;;
16979;SDS011;42288;52.182;21.156;2023-12-20T02:03:49;38.63;;;20.10;;
16979;SDS011;42288;52.182;21.156;2023-12-20T02:06:16;35.33;;;18.83;;
16979;SDS011;42288;52.182;21.156;2023-12-20T02:08:43;28.93;;;14.37;;
16979;SDS011;42288;52.182;21.156;2023-12-20T02:11:10;41.30;;;19.67;;
16979;SDS011;42288;52.182;21.156;2023-12-20T02:13:35;40.73;;;19.77;;
16979;SDS011;42288;52.182;21.156;2023-12-20T02:16:01;38.87;;;19.20;;
16979;SDS011;42288;52.182;21.156;2023-12-20T02:18:27;37.90;;;17.70;;
16979;SDS011;42288;52.182;21.156;2023-12-20T02:20:53;57.07;;;20.23;;
16979;SDS011;42288;52.182;21.156;2023-12-20T02:23:18;43.17;;;20.27;;
16979;SDS011;42288;52.182;21.156;2023-12-20T02:25:44;52.53;;;19.70;;
16979;SDS011;42288;52.182;21.156;2023-12-20T02:28:10;41.93;;;18.37;;
16979;SDS011;42288;52.182;21.156;2023-12-20T02:30:35;38.33;;;18.07;;
16979;SDS011;42288;52.182;21.156;2023-12-20T02:33:01;38.07;;;18.20;;
16979;SDS011;42288;52.182;21.156;2023-12-20T02:35:34;49.97;;;19.40;;
16979;SDS011;42288;52.182;21.156;2023-12-20T02:37:59;52.30;;;19.30;;
16979;SDS011;42288;52.182;21.156;2023-12-20T02:40:25;53.60;;;20.10;;
16979;SDS011;42288;52.182;21.156;2023-12-20T02:42:51;49.67;;;21.23;;
16979;SDS011;42288;52.182;21.156;2023-12-20T02:45:16;51.40;;;20.03;;
16979;SDS011;42288;52.182;21.156;2023-12-20T02:47:42;39.37;;;18.73;;
16979;SDS011;42288;52.182;21.156;2023-12-20T02:50:07;38.53;;;17.50;;
16979;SDS011;42288;52.182;21.156;2023-12-20T02:52:33;43.43;;;17.30;;
16979;SDS011;42288;52.182;21.156;2023-12-20T02:54:59;38.20;;;18.00;;
16979;SDS011;42288;52.182;21.156;2023-12-20T02:57:24;29.37;;;16.97;;
16979;SDS011;42288;52.182;21.156;2023-12-20T02:59:50;35.50;;;16.07;;
16979;SDS011;42288;52.182;21.156;2023-12-20T03:02:16;39.40;;;14.97;;
16979;SDS011;42288;52.182;21.156;2023-12-20T03:04:41;40.00;;;14.43;;
16979;SDS011;42288;52.182;21.156;2023-12-20T03:07:07;30.50;;;12.07;;
16979;SDS011;42288;52.182;21.156;2023-12-20T03:09:32;22.17;;;10.73;;
16979;SDS011;42288;52.182;21.156;2023-12-20T03:11:58;29.67;;;13.77;;
16979;SDS011;42288;52.182;21.156;2023-12-20T03:14:23;22.67;;;11.93;;
16979;SDS011;42288;52.182;21.156;2023-12-20T03:16:49;21.80;;;10.53;;
16979;SDS011;42288;52.182;21.156;2023-12-20T03:19:16;20.03;;;10.60;;
16979;SDS011;42288;52.182;21.156;2023-12-20T03:21:42;18.07;;;9.27;;
16979;SDS011;42288;52.182;21.156;2023-12-20T03:24:08;25.93;;;11.33;;
16979;SDS011;42288;52.182;21.156;2023-12-20T03:26:34;29.90;;;12.63;;
16979;SDS011;42288;52.182;21.156;2023-12-20T03:28:59;32.67;;;12.97;;
16979;SDS011;42288;52.182;21.156;2023-12-20T03:31:25;22.43;;;10.30;;
16979;SDS011;42288;52.182;21.156;2023-12-20T03:33:50;11.47;;;7.33;;
16979;SDS011;42288;52.182;21.156;2023-12-20T03:36:18;22.03;;;10.80;;
16979;SDS011;42288;52.182;21.156;2023-12-20T03:38:44;20.03;;;10.30;;
16979;SDS011;42288;52.182;21.156;2023-12-20T03:41:10;21.37;;;10.23;;
16979;SDS011;42288;52.182;21.156;2023-12-20T03:43:36;19.67;;;9.53;;
16979;SDS011;42288;52.182;21.156;2023-12-20T03:46:02;21.70;;;10.43;;
16979;SDS011;42288;52.182;21.156;2023-12-20T03:48:28;16.03;;;8.47;;
16979;SDS011;42288;52.182;21.156;2023-12-20T03:50:54;20.47;;;8.33;;
16979;SDS011;42288;52.182;21.156;2023-12-20T03:53:21;19.43;;;8.80;;
16979;SDS011;42288;52.182;21.156;2023-12-20T03:55:47;19.57;;;8.97;;
16979;SDS011;42288;52.182;21.156;2023-12-20T03:58:13;18.53;;;9.43;;
16979;SDS011;42288;52.182;21.156;2023-12-20T04:00:39;14.80;;;8.10;;
16979;SDS011;42288;52.182;21.156;2023-12-20T04:03:04;19.63;;;8.97;;
16979;SDS011;42288;52.182;21.156;2023-12-20T04:05:30;19.53;;;8.87;;
16979;SDS011;42288;52.182;21.156;2023-12-20T04:07:55;16.47;;;8.30;;
16979;SDS011;42288;52.182;21.156;2023-12-20T04:10:21;18.23;;;9.40;;
16979;SDS011;42288;52.182;21.156;2023-12-20T04:12:47;20.47;;;9.27;;
16979;SDS011;42288;52.182;21.156;2023-12-20T04:15:12;22.60;;;9.70;;
16979;SDS011;42288;52.182;21.156;2023-12-20T04:17:38;17.90;;;9.70;;
16979;SDS011;42288;52.182;21.156;2023-12-20T04:20:04;20.20;;;9.53;;
16979;SDS011;42288;52.182;21.156;2023-12-20T04:22:30;16.67;;;8.63;;
16979;SDS011;42288;52.182;21.156;2023-12-20T04:24:56;17.00;;;7.83;;
16979;SDS011;42288;52.182;21.156;2023-12-20T04:27:21;20.27;;;9.43;;
16979;SDS011;42288;52.182;21.156;2023-12-20T04:29:47;16.13;;;8.30;;
16979;SDS011;42288;52.182;21.156;2023-12-20T04:32:13;19.67;;;9.23;;
16979;SDS011;42288;52.182;21.156;2023-12-20T04:34:38;25.97;;;10.43;;
16979;SDS011;42288;52.182;21.156;2023-12-20T04:37:04;22.23;;;10.30;;
16979;SDS011;42288;52.182;21.156;2023-12-20T04:39:29;20.70;;;10.40;;
16979;SDS011;42288;52.182;21.156;2023-12-20T04:41:55;22.60;;;10.57;;
16979;SDS011;42288;52.182;21.156;2023-12-20T04:44:21;21.23;;;11.30;;
16979;SDS011;42288;52.182;21.156;2023-12-20T04:46:46;24.70;;;12.17;;
16979;SDS011;42288;52.182;21.156;2023-12-20T04:49:12;23.87;;;12.77;;
16979;SDS011;42288;52.182;21.156;2023-12-20T04:51:38;21.37;;;11.47;;
16979;SDS011;42288;52.182;21.156;2023-12-20T04:54:03;18.47;;;10.93;;
16979;SDS011;42288;52.182;21.156;2023-12-20T04:56:29;22.50;;;12.43;;
16979;SDS011;42288;52.182;21.156;2023-12-20T04:58:54;17.00;;;10.00;;
16979;SDS011;42288;52.182;21.156;2023-12-20T05:01:20;20.20;;;10.80;;
16979;SDS011;42288;52.182;21.156;2023-12-20T05:03:46;19.80;;;10.43;;
16979;SDS011;42288;52.182;21.156;2023-12-20T05:06:12;21.63;;;10.57;;
16979;SDS011;42288;52.182;21.156;2023-12-20T05:08:37;18.20;;;10.43;;
16979;SDS011;42288;52.182;21.156;2023-12-20T05:11:03;19.70;;;11.00;;
16979;SDS011;42288;52.182;21.156;2023-12-20T05:13:29;20.50;;;11.67;;
16979;SDS011;42288;52.182;21.156;2023-12-20T05:15:55;18.23;;;10.80;;
16979;SDS011;42288;52.182;21.156;2023-12-20T05:18:21;21.80;;;11.53;;
16979;SDS011;42288;52.182;21.156;2023-12-20T05:20:48;22.83;;;11.67;;
16979;SDS011;42288;52.182;21.156;2023-12-20T05:23:14;21.53;;;11.63;;
16979;SDS011;42288;52.182;21.156;2023-12-20T05:25:40;22.27;;;12.20;;
16979;SDS011;42288;52.182;21.156;2023-12-20T05:28:05;22.57;;;12.50;;
16979;SDS011;42288;52.182;21.156;2023-12-20T05:30:31;21.17;;;12.10;;
16979;SDS011;42288;52.182;21.156;2023-12-20T05:32:57;22.70;;;12.70;;
16979;SDS011;42288;52.182;21.156;2023-12-20T05:35:22;22.47;;;13.43;;
16979;SDS011;42288;52.182;21.156;2023-12-20T05:37:48;23.27;;;13.10;;
16979;SDS011;42288;52.182;21.156;2023-12-20T05:40:14;27.93;;;12.87;;
16979;SDS011;42288;52.182;21.156;2023-12-20T05:42:40;27.37;;;14.20;;
16979;SDS011;42288;52.182;21.156;2023-12-20T05:45:05;28.83;;;14.20;;
16979;SDS011;42288;52.182;21.156;2023-12-20T05:47:31;24.93;;;13.13;;
16979;SDS011;42288;52.182;21.156;2023-12-20T05:49:57;26.10;;;14.17;;
16979;SDS011;42288;52.182;21.156;2023-12-20T05:52:23;24.70;;;13.20;;
16979;SDS011;42288;52.182;21.156;2023-12-20T05:54:49;23.77;;;11.83;;
16979;SDS011;42288;52.182;21.156;2023-12-20T05:57:14;22.37;;;13.23;;
16979;SDS011;42288;52.182;21.156;2023-12-20T05:59:40;21.33;;;11.70;;
16979;SDS011;42288;52.182;21.156;2023-12-20T06:02:06;19.77;;;11.70;;
16979;SDS011;42288;52.182;21.156;2023-12-20T06:04:32;21.47;;;12.67;;
16979;SDS011;42288;52.182;21.156;2023-12-20T06:06:58;20.43;;;11.67;;
16979;SDS011;42288;52.182;21.156;2023-12-20T06:09:24;21.17;;;11.33;;
16979;SDS011;42288;52.182;21.156;2023-12-20T06:11:51;22.10;;;12.20;;
16979;SDS011;42288;52.182;21.156;2023-12-20T06:14:17;19.20;;;11.93;;
16979;SDS011;42288;52.182;21.156;2023-12-20T06:16:42;17.47;;;10.97;;
16979;SDS011;42288;52.182;21.156;2023-12-20T06:19:08;22.30;;;11.30;;
16979;SDS011;42288;52.182;21.156;2023-12-20T06:21:34;25.37;;;12.97;;
16979;SDS011;42288;52.182;21.156;2023-12-20T06:23:59;19.57;;;11.30;;
16979;SDS011;42288;52.182;21.156;2023-12-20T06:26:25;18.90;;;10.73;;
16979;SDS011;42288;52.182;21.156;2023-12-20T06:28:50;17.43;;;10.07;;
16979;SDS011;42288;52.182;21.156;2023-12-20T06:31:16;21.83;;;11.40;;
16979;SDS011;42288;52.182;21.156;2023-12-20T06:33:42;19.83;;;10.80;;
16979;SDS011;42288;52.182;21.156;2023-12-20T06:36:10;17.57;;;10.63;;
16979;SDS011;42288;52.182;21.156;2023-12-20T06:38:38;17.53;;;10.17;;
16979;SDS011;42288;52.182;21.156;2023-12-20T06:41:03;18.30;;;11.33;;
16979;SDS011;42288;52.182;21.156;2023-12-20T06:43:29;21.33;;;11.37;;
16979;SDS011;42288;52.182;21.156;2023-12-20T06:45:56;15.67;;;9.63;;
16979;SDS011;42288;52.182;21.156;2023-12-20T06:48:22;20.60;;;10.70;;
16979;SDS011;42288;52.182;21.156;2023-12-20T06:50:47;16.70;;;10.60;;
16979;SDS011;42288;52.182;21.156;2023-12-20T06:53:13;14.83;;;8.63;;
16979;SDS011;42288;52.182;21.156;2023-12-20T06:55:38;17.10;;;10.40;;
16979;SDS011;42288;52.182;21.156;2023-12-20T06:58:04;17.37;;;9.80;;
16979;SDS011;42288;52.182;21.156;2023-12-20T07:00:31;16.37;;;10.13;;
16979;SDS011;42288;52.182;21.156;2023-12-20T07:02:57;19.77;;;10.77;;
16979;SDS011;42288;52.182;21.156;2023-12-20T07:05:23;16.33;;;9.70;;
16979;SDS011;42288;52.182;21.156;2023-12-20T07:07:49;14.63;;;8.97;;
16979;SDS011;42288;52.182;21.156;2023-12-20T07:10:14;18.17;;;9.83;;
16979;SDS011;42288;52.182;21.156;2023-12-20T07:12:40;17.40;;;9.93;;
16979;SDS011;42288;52.182;21.156;2023-12-20T07:15:06;18.93;;;10.20;;
16979;SDS011;42288;52.182;21.156;2023-12-20T07:17:32;14.40;;;8.80;;
16979;SDS011;42288;52.182;21.156;2023-12-20T07:19:59;14.53;;;9.17;;
16979;SDS011;42288;52.182;21.156;2023-12-20T07:22:28;19.63;;;11.70;;
16979;SDS011;42288;52.182;21.156;2023-12-20T07:24:56;16.03;;;10.13;;
16979;SDS011;42288;52.182;21.156;2023-12-20T07:27:22;18.23;;;10.30;;
16979;SDS011;42288;52.182;21.156;2023-12-20T07:29:48;17.53;;;10.20;;
16979;SDS011;42288;52.182;21.156;2023-12-20T07:32:13;18.73;;;10.50;;
16979;SDS011;42288;52.182;21.156;2023-12-20T07:34:39;20.17;;;11.23;;
16979;SDS011;42288;52.182;21.156;2023-12-20T07:37:05;17.80;;;11.03;;
16979;SDS011;42288;52.182;21.156;2023-12-20T07:39:30;15.47;;;8.90;;
16979;SDS011;42288;52.182;21.156;2023-12-20T07:41:56;19.17;;;10.77;;
16979;SDS011;42288;52.182;21.156;2023-12-20T07:44:21;19.43;;;11.80;;
16979;SDS011;42288;52.182;21.156;2023-12-20T07:46:47;15.70;;;9.17;;
16979;SDS011;42288;52.182;21.156;2023-12-20T07:49:13;16.93;;;10.13;;
16979;SDS011;42288;52.182;21.156;2023-12-20T07:51:40;18.07;;;11.20;;
16979;SDS011;42288;52.182;21.156;2023-12-20T07:54:06;20.80;;;11.50;;
16979;SDS011;42288;52.182;21.156;2023-12-20T07:56:33;19.80;;;10.43;;
16979;SDS011;42288;52.182;21.156;2023-12-20T07:58:58;20.60;;;11.57;;
16979;SDS011;42288;52.182;21.156;2023-12-20T08:01:24;18.90;;;11.23;;
16979;SDS011;42288;52.182;21.156;2023-12-20T08:03:50;13.83;;;9.07;;
16979;SDS011;42288;52.182;21.156;2023-12-20T08:06:15;15.97;;;9.90;;
16979;SDS011;42288;52.182;21.156;2023-12-20T08:08:42;11.50;;;8.00;;
16979;SDS011;42288;52.182;21.156;2023-12-20T08:11:08;18.53;;;9.73;;
16979;SDS011;42288;52.182;21.156;2023-12-20T08:13:33;16.07;;;9.27;;
16979;SDS011;42288;52.182;21.156;2023-12-20T08:15:59;15.47;;;8.87;;
16979;SDS011;42288;52.182;21.156;2023-12-20T08:18:24;12.57;;;8.63;;
16979;SDS011;42288;52.182;21.156;2023-12-20T08:20:50;17.43;;;10.10;;
16979;SDS011;42288;52.182;21.156;2023-12-20T08:23:17;16.57;;;9.07;;
16979;SDS011;42288;52.182;21.156;2023-12-20T08:25:45;11.63;;;7.37;;
16979;SDS011;42288;52.182;21.156;2023-12-20T08:28:11;12.37;;;7.47;;
16979;SDS011;42288;52.182;21.156;2023-12-20T08:30:36;11.57;;;6.57;;
16979;SDS011;42288;52.182;21.156;2023-12-20T08:33:02;12.77;;;7.00;;
16979;SDS011;42288;52.182;21.156;2023-12-20T08:35:28;15.43;;;9.00;;
16979;SDS011;42288;52.182;21.156;2023-12-20T08:37:53;12.67;;;7.63;;
16979;SDS011;42288;52.182;21.156;2023-12-20T08:40:19;12.83;;;7.90;;
16979;SDS011;42288;52.182;21.156;2023-12-20T08:42:45;12.63;;;8.93;;
16979;SDS011;42288;52.182;21.156;2023-12-20T08:45:11;15.20;;;8.63;;
16979;SDS011;42288;52.182;21.156;2023-12-20T08:47:36;10.03;;;6.90;;
16979;SDS011;42288;52.182;21.156;2023-12-20T08:50:02;12.33;;;7.87;;
16979;SDS011;42288;52.182;21.156;2023-12-20T08:52:28;12.83;;;7.07;;
16979;SDS011;42288;52.182;21.156;2023-12-20T08:54:54;12.50;;;8.70;;
16979;SDS011;42288;52.182;21.156;2023-12-20T08:57:20;11.83;;;7.77;;
16979;SDS011;42288;52.182;21.156;2023-12-20T08:59:46;12.23;;;7.50;;
16979;SDS011;42288;52.182;21.156;2023-12-20T09:02:13;17.73;;;8.53;;
16979;SDS011;42288;52.182;21.156;2023-12-20T09:04:39;12.80;;;7.83;;
16979;SDS011;42288;52.182;21.156;2023-12-20T09:07:05;12.00;;;7.70;;
16979;SDS011;42288;52.182;21.156;2023-12-20T09:09:30;16.03;;;8.07;;
16979;SDS011;42288;52.182;21.156;2023-12-20T09:11:57;12.43;;;7.10;;
16979;SDS011;42288;52.182;21.156;2023-12-20T09:14:23;12.03;;;7.33;;
16979;SDS011;42288;52.182;21.156;2023-12-20T09:16:50;14.37;;;8.63;;
16979;SDS011;42288;52.182;21.156;2023-12-20T09:19:16;14.07;;;8.40;;
16979;SDS011;42288;52.182;21.156;2023-12-20T09:21:42;10.70;;;7.30;;
16979;SDS011;42288;52.182;21.156;2023-12-20T09:24:08;15.77;;;9.43;;
16979;SDS011;42288;52.182;21.156;2023-12-20T09:26:34;16.67;;;9.70;;
16979;SDS011;42288;52.182;21.156;2023-12-20T09:29:00;13.70;;;8.50;;
16979;SDS011;42288;52.182;21.156;2023-12-20T09:31:26;12.77;;;7.43;;
16979;SDS011;42288;52.182;21.156;2023-12-20T09:33:51;9.07;;;6.03;;
16979;SDS011;42288;52.182;21.156;2023-12-20T09:36:17;11.40;;;6.80;;
16979;SDS011;42288;52.182;21.156;2023-12-20T09:38:43;13.00;;;8.03;;
16979;SDS011;42288;52.182;21.156;2023-12-20T09:41:09;9.60;;;6.40;;
16979;SDS011;42288;52.182;21.156;2023-12-20T09:43:35;9.00;;;6.07;;
16979;SDS011;42288;52.182;21.156;2023-12-20T09:46:02;12.27;;;6.33;;
16979;SDS011;42288;52.182;21.156;2023-12-20T09:48:32;11.77;;;7.60;;
16979;SDS011;42288;52.182;21.156;2023-12-20T09:50:58;8.77;;;5.90;;
16979;SDS011;42288;52.182;21.156;2023-12-20T09:53:24;13.30;;;6.93;;
16979;SDS011;42288;52.182;21.156;2023-12-20T09:55:58;11.77;;;7.53;;
16979;SDS011;42288;52.182;21.156;2023-12-20T09:58:26;11.97;;;6.93;;
16979;SDS011;42288;52.182;21.156;2023-12-20T10:00:52;9.60;;;5.93;;
16979;SDS011;42288;52.182;21.156;2023-12-20T10:03:19;11.40;;;6.50;;
16979;SDS011;42288;52.182;21.156;2023-12-20T10:05:50;10.83;;;6.67;;
16979;SDS011;42288;52.182;21.156;2023-12-20T10:08:20;11.33;;;6.97;;
16979;SDS011;42288;52.182;21.156;2023-12-20T10:10:47;11.47;;;6.93;;
16979;SDS011;42288;52.182;21.156;2023-12-20T10:13:13;12.30;;;7.73;;
16979;SDS011;42288;52.182;21.156;2023-12-20T10:15:38;13.63;;;8.40;;
16979;SDS011;42288;52.182;21.156;2023-12-20T10:18:05;13.10;;;7.93;;
16979;SDS011;42288;52.182;21.156;2023-12-20T10:20:31;12.83;;;7.83;;
16979;SDS011;42288;52.182;21.156;2023-12-20T10:22:58;12.77;;;6.90;;
16979;SDS011;42288;52.182;21.156;2023-12-20T10:25:25;16.00;;;9.23;;
16979;SDS011;42288;52.182;21.156;2023-12-20T10:28:08;11.10;;;7.00;;
16979;SDS011;42288;52.182;21.156;2023-12-20T10:30:33;11.03;;;7.30;;
16979;SDS011;42288;52.182;21.156;2023-12-20T10:32:59;12.83;;;7.53;;
16979;SDS011;42288;52.182;21.156;2023-12-20T10:35:24;9.00;;;6.33;;
16979;SDS011;42288;52.182;21.156;2023-12-20T10:37:51;11.00;;;6.53;;
16979;SDS011;42288;52.182;21.156;2023-12-20T10:40:21;10.87;;;7.20;;
16979;SDS011;42288;52.182;21.156;2023-12-20T10:42:47;12.17;;;7.73;;
16979;SDS011;42288;52.182;21.156;2023-12-20T10:45:14;12.27;;;6.50;;
16979;SDS011;42288;52.182;21.156;2023-12-20T10:47:42;14.57;;;8.07;;
16979;SDS011;42288;52.182;21.156;2023-12-20T10:50:11;10.87;;;7.23;;
16979;SDS011;42288;52.182;21.156;2023-12-20T10:52:37;14.83;;;7.63;;
16979;SDS011;42288;52.182;21.156;2023-12-20T10:55:04;10.20;;;7.50;;
16979;SDS011;42288;52.182;21.156;2023-12-20T10:57:30;12.00;;;7.40;;
16979;SDS011;42288;52.182;21.156;2023-12-20T10:59:56;11.10;;;6.70;;
16979;SDS011;42288;52.182;21.156;2023-12-20T11:02:26;9.30;;;6.30;;
16979;SDS011;42288;52.182;21.156;2023-12-20T11:04:59;14.33;;;8.07;;
16979;SDS011;42288;52.182;21.156;2023-12-20T11:07:43;11.70;;;7.50;;
16979;SDS011;42288;52.182;21.156;2023-12-20T11:13:03;10.40;;;6.80;;
16979;SDS011;42288;52.182;21.156;2023-12-20T11:15:35;11.00;;;7.30;;
16979;SDS011;42288;52.182;21.156;2023-12-20T11:18:01;13.33;;;7.33;;
16979;SDS011;42288;52.182;21.156;2023-12-20T11:20:39;10.53;;;7.23;;
16979;SDS011;42288;52.182;21.156;2023-12-20T11:23:06;12.57;;;7.87;;
16979;SDS011;42288;52.182;21.156;2023-12-20T11:25:50;13.93;;;7.60;;
16979;SDS011;42288;52.182;21.156;2023-12-20T11:28:20;8.73;;;5.63;;
16979;SDS011;42288;52.182;21.156;2023-12-20T11:30:52;9.33;;;6.07;;
16979;SDS011;42288;52.182;21.156;2023-12-20T11:33:23;16.13;;;7.37;;
16979;SDS011;42288;52.182;21.156;2023-12-20T11:35:50;11.37;;;6.83;;
16979;SDS011;42288;52.182;21.156;2023-12-20T11:38:16;11.33;;;6.20;;
16979;SDS011;42288;52.182;21.156;2023-12-20T11:40:44;10.27;;;6.23;;
16979;SDS011;42288;52.182;21.156;2023-12-20T11:43:28;10.53;;;6.63;;
16979;SDS011;42288;52.182;21.156;2023-12-20T11:46:03;11.43;;;6.80;;
16979;SDS011;42288;52.182;21.156;2023-12-20T11:48:30;9.53;;;6.37;;
16979;SDS011;42288;52.182;21.156;2023-12-20T11:50:56;8.23;;;5.30;;
16979;SDS011;42288;52.182;21.156;2023-12-20T11:53:22;10.40;;;6.67;;
16979;SDS011;42288;52.182;21.156;2023-12-20T11:55:48;9.87;;;5.93;;
16979;SDS011;42288;52.182;21.156;2023-12-20T11:58:14;11.33;;;6.40;;
16979;SDS011;42288;52.182;21.156;2023-12-20T12:00:41;10.40;;;6.17;;
16979;SDS011;42288;52.182;21.156;2023-12-20T12:03:08;9.43;;;6.27;;
16979;SDS011;42288;52.182;21.156;2023-12-20T12:05:34;9.47;;;4.90;;
16979;SDS011;42288;52.182;21.156;2023-12-20T12:08:01;9.30;;;5.73;;
16979;SDS011;42288;52.182;21.156;2023-12-20T12:10:28;9.80;;;6.17;;
16979;SDS011;42288;52.182;21.156;2023-12-20T12:12:54;9.07;;;6.37;;
16979;SDS011;42288;52.182;21.156;2023-12-20T12:15:20;11.37;;;6.17;;
16979;SDS011;42288;52.182;21.156;2023-12-20T12:17:53;11.17;;;6.57;;
16979;SDS011;42288;52.182;21.156;2023-12-20T12:20:21;10.83;;;6.80;;
16979;SDS011;42288;52.182;21.156;2023-12-20T12:23:01;10.20;;;6.80;;
16979;SDS011;42288;52.182;21.156;2023-12-20T12:25:28;12.17;;;6.97;;
16979;SDS011;42288;52.182;21.156;2023-12-20T12:27:55;10.83;;;6.40;;
16979;SDS011;42288;52.182;21.156;2023-12-20T12:30:22;10.17;;;6.10;;
16979;SDS011;42288;52.182;21.156;2023-12-20T12:32:52;10.10;;;7.03;;
16979;SDS011;42288;52.182;21.156;2023-12-20T12:35:20;11.60;;;7.33;;
16979;SDS011;42288;52.182;21.156;2023-12-20T12:37:46;11.37;;;7.27;;
16979;SDS011;42288;52.182;21.156;2023-12-20T12:40:12;13.37;;;7.33;;
16979;SDS011;42288;52.182;21.156;2023-12-20T12:42:39;16.23;;;8.20;;
16979;SDS011;42288;52.182;21.156;2023-12-20T12:45:06;14.20;;;7.30;;
16979;SDS011;42288;52.182;21.156;2023-12-20T12:47:32;11.43;;;7.60;;
16979;SDS011;42288;52.182;21.156;2023-12-20T12:49:59;17.23;;;8.43;;
16979;SDS011;42288;52.182;21.156;2023-12-20T12:52:24;17.47;;;9.10;;
16979;SDS011;42288;52.182;21.156;2023-12-20T12:54:51;20.13;;;10.10;;
16979;SDS011;42288;52.182;21.156;2023-12-20T12:57:17;19.97;;;9.87;;
16979;SDS011;42288;52.182;21.156;2023-12-20T12:59:43;16.37;;;9.77;;
16979;SDS011;42288;52.182;21.156;2023-12-20T13:02:11;17.90;;;10.40;;
16979;SDS011;42288;52.182;21.156;2023-12-20T13:04:38;15.53;;;8.57;;
16979;SDS011;42288;52.182;21.156;2023-12-20T13:07:04;14.27;;;8.57;;
16979;SDS011;42288;52.182;21.156;2023-12-20T13:09:30;15.97;;;9.30;;
16979;SDS011;42288;52.182;21.156;2023-12-20T13:11:55;21.63;;;11.13;;
16979;SDS011;42288;52.182;21.156;2023-12-20T13:14:21;19.07;;;10.67;;
16979;SDS011;42288;52.182;21.156;2023-12-20T13:16:47;18.47;;;11.00;;
16979;SDS011;42288;52.182;21.156;2023-12-20T13:19:13;16.63;;;9.93;;
16979;SDS011;42288;52.182;21.156;2023-12-20T13:21:38;23.73;;;12.27;;
16979;SDS011;42288;52.182;21.156;2023-12-20T13:24:05;17.67;;;10.30;;
16979;SDS011;42288;52.182;21.156;2023-12-20T13:26:31;18.73;;;11.33;;
16979;SDS011;42288;52.182;21.156;2023-12-20T13:28:57;17.60;;;10.43;;
16979;SDS011;42288;52.182;21.156;2023-12-20T13:31:23;16.37;;;9.77;;
16979;SDS011;42288;52.182;21.156;2023-12-20T13:33:49;19.33;;;10.27;;
16979;SDS011;42288;52.182;21.156;2023-12-20T13:36:16;20.47;;;10.70;;
16979;SDS011;42288;52.182;21.156;2023-12-20T13:38:42;18.60;;;10.23;;
16979;SDS011;42288;52.182;21.156;2023-12-20T13:41:08;19.37;;;10.33;;
16979;SDS011;42288;52.182;21.156;2023-12-20T13:43:34;19.20;;;10.03;;
16979;SDS011;42288;52.182;21.156;2023-12-20T13:45:59;16.83;;;10.07;;
16979;SDS011;42288;52.182;21.156;2023-12-20T13:48:25;16.60;;;10.47;;
16979;SDS011;42288;52.182;21.156;2023-12-20T13:50:51;18.27;;;10.03;;
16979;SDS011;42288;52.182;21.156;2023-12-20T13:53:17;17.60;;;9.07;;
16979;SDS011;42288;52.182;21.156;2023-12-20T13:55:44;16.83;;;9.70;;
16979;SDS011;42288;52.182;21.156;2023-12-20T13:58:10;15.87;;;9.70;;
16979;SDS011;42288;52.182;21.156;2023-12-20T14:00:35;17.30;;;9.43;;
16979;SDS011;42288;52.182;21.156;2023-12-20T14:03:02;15.53;;;9.37;;
16979;SDS011;42288;52.182;21.156;2023-12-20T14:05:28;14.67;;;8.43;;
16979;SDS011;42288;52.182;21.156;2023-12-20T14:07:54;14.93;;;8.87;;
16979;SDS011;42288;52.182;21.156;2023-12-20T14:10:23;16.13;;;8.73;;
16979;SDS011;42288;52.182;21.156;2023-12-20T14:12:51;15.40;;;9.87;;
16979;SDS011;42288;52.182;21.156;2023-12-20T14:15:18;14.43;;;8.90;;